Time;durP1;ratioP1;P1;durP2;ratioP2;P2;SDS_P1;SDS_P2;PMS_P1;PMS_P2;Temp;Humidity;BMP_temperature;BMP_pressure;BME280_temperature;BME280_humidity;BME280_pressure;Samples;Min_cycle;Max_cycle;Signal;HPM_P1;HPM_P2
2023/01/27 00:00:19;;;;;;;8.38;6.18;;;;;;;2.18;100.00;94063.63;5062245;28;20857;-85
2023/01/27 00:02:46;;;;;;;8.00;6.03;;;;;;;2.02;100.00;94056.97;5062255;28;20207;-85
2023/01/27 00:05:15;;;;;;;7.23;5.40;;;;;;;2.03;100.00;94062.06;5061634;28;20746;-85
2023/01/27 00:07:44;;;;;;;9.53;5.00;;;;;;;2.07;100.00;94049.75;5063553;28;20456;-85
2023/01/27 00:10:14;;;;;;;8.13;5.17;;;;;;;1.81;100.00;94044.50;5027607;28;20438;-85
2023/01/27 00:15:29;;;;;;;11.07;7.30;;;;;;;1.62;100.00;94038.84;5062964;28;20467;-85
2023/01/27 00:17:56;;;;;;;7.43;5.33;;;;;;;1.80;100.00;94048.03;5061568;28;20210;-85
2023/01/27 00:25:49;;;;;;;7.97;5.97;;;;;;;1.89;100.00;94025.91;5061502;28;20479;-85
2023/01/27 00:28:21;;;;;;;7.47;6.50;;;;;;;1.86;100.00;94024.34;5061521;28;20290;-84
2023/01/27 00:30:50;;;;;;;9.00;5.77;;;;;;;1.85;100.00;94035.63;5062917;28;20443;-85
2023/01/27 00:33:25;;;;;;;10.17;6.23;;;;;;;1.97;100.00;94030.56;5063209;28;20429;-85
2023/01/27 00:35:58;;;;;;;7.07;6.37;;;;;;;2.09;100.00;94032.38;5060227;28;20441;-84
2023/01/27 00:38:25;;;;;;;7.32;5.57;;;;;;;2.15;100.00;94030.19;5063131;28;20492;-85
2023/01/27 00:43:32;;;;;;;7.33;5.20;;;;;;;2.14;100.00;94030.28;5060882;28;20813;-85
2023/01/27 00:46:01;;;;;;;7.10;5.87;;;;;;;2.19;100.00;94033.41;5027454;28;20445;-85
2023/01/27 00:48:28;;;;;;;6.07;5.47;;;;;;;2.13;100.00;94041.59;5062813;28;20450;-85
2023/01/27 00:50:54;;;;;;;10.03;6.73;;;;;;;2.24;100.00;94046.88;5060768;28;20445;-85
2023/01/27 00:53:21;;;;;;;8.80;6.37;;;;;;;2.34;100.00;94042.75;5060553;28;20442;-85
2023/01/27 00:55:48;;;;;;;11.80;6.40;;;;;;;2.37;100.00;94047.72;5061100;28;20441;-83
2023/01/27 00:58:16;;;;;;;8.43;7.53;;;;;;;2.26;100.00;94047.59;5061985;28;20453;-85
2023/01/27 01:00:42;;;;;;;9.70;6.50;;;;;;;2.29;100.00;94039.63;5061619;28;20507;-85
2023/01/27 01:03:11;;;;;;;11.03;7.27;;;;;;;2.30;100.00;94036.09;5060484;28;20425;-85
2023/01/27 01:05:37;;;;;;;8.83;5.50;;;;;;;2.30;100.00;94035.28;5062244;28;20447;-85
2023/01/27 01:08:04;;;;;;;9.03;6.13;;;;;;;2.20;100.00;94024.72;5062060;28;20476;-85
2023/01/27 01:10:31;;;;;;;7.60;6.20;;;;;;;2.11;100.00;94031.34;5062361;28;20460;-84
2023/01/27 01:12:58;;;;;;;8.03;5.83;;;;;;;2.13;100.00;94023.47;5061002;28;20456;-84
2023/01/27 01:15:25;;;;;;;6.83;6.10;;;;;;;2.21;100.00;94026.38;5062210;28;20465;-84
2023/01/27 01:17:52;;;;;;;8.07;6.30;;;;;;;2.23;100.00;94032.28;5062932;28;20453;-85
2023/01/27 01:20:20;;;;;;;8.43;6.23;;;;;;;2.24;100.00;94031.34;5061351;28;20928;-84
2023/01/27 01:22:47;;;;;;;8.60;6.90;;;;;;;2.29;100.00;94037.03;5060086;28;20446;-85
2023/01/27 01:25:14;;;;;;;7.47;6.03;;;;;;;2.33;100.00;94029.91;5058878;28;20473;-84
2023/01/27 01:27:44;;;;;;;7.70;5.47;;;;;;;2.24;100.00;94017.56;5060237;28;20202;-84
2023/01/27 01:30:12;;;;;;;9.83;6.53;;;;;;;2.10;100.00;94026.25;5060925;28;20441;-85
2023/01/27 01:32:38;;;;;;;8.30;7.17;;;;;;;2.10;100.00;94026.25;5061387;28;20441;-84
2023/01/27 01:35:06;;;;;;;8.77;6.60;;;;;;;2.21;100.00;94031.53;5061501;28;20450;-85
2023/01/27 01:37:34;;;;;;;9.40;7.30;;;;;;;2.27;100.00;94044.06;5060937;28;20449;-84
2023/01/27 01:40:01;;;;;;;8.63;7.57;;;;;;;2.37;100.00;94052.91;5059932;28;20445;-84
2023/01/27 01:42:52;;;;;;;11.17;8.93;;;;;;;2.50;100.00;94052.91;5060595;28;21172;-84
2023/01/27 01:45:43;;;;;;;10.60;7.47;;;;;;;2.57;100.00;94045.53;5060233;28;20453;-85
2023/01/27 01:48:14;;;;;;;9.30;6.00;;;;;;;2.56;100.00;94041.31;5063172;28;20457;-85
2023/01/27 01:50:45;;;;;;;7.37;6.50;;;;;;;2.59;100.00;94033.31;5030513;28;20444;-84
2023/01/27 01:53:14;;;;;;;11.53;7.97;;;;;;;2.53;100.00;94023.38;5064746;28;20454;-83
2023/01/27 01:55:41;;;;;;;9.90;6.33;;;;;;;2.56;100.00;94020.59;5064481;28;20482;-85
2023/01/27 01:58:11;;;;;;;8.40;7.27;;;;;;;2.48;100.00;94009.00;5029606;28;20441;-85
2023/01/27 02:00:39;;;;;;;8.67;6.73;;;;;;;2.49;100.00;94004.66;5064670;28;20445;-83
2023/01/27 02:03:06;;;;;;;11.65;8.70;;;;;;;2.46;100.00;93991.91;5064825;28;20508;-83
2023/01/27 02:05:36;;;;;;;12.00;8.47;;;;;;;2.41;100.00;93994.00;5064876;28;20206;-85
2023/01/27 02:08:08;;;;;;;13.43;9.90;;;;;;;2.39;100.00;93988.09;5064875;28;20445;-84
2023/01/27 02:10:36;;;;;;;10.50;8.47;;;;;;;2.34;100.00;93982.41;5064872;28;20449;-83
2023/01/27 02:13:05;;;;;;;15.20;9.30;;;;;;;2.31;100.00;93979.97;5064759;28;20790;-84
2023/01/27 02:15:32;;;;;;;14.13;9.13;;;;;;;2.26;100.00;93964.78;5064386;28;20478;-83
2023/01/27 02:18:00;;;;;;;10.40;8.57;;;;;;;2.21;100.00;93964.25;5064620;28;20440;-83
2023/01/27 02:20:33;;;;;;;12.00;10.00;;;;;;;2.21;100.00;93963.44;5064479;28;20441;-84
2023/01/27 02:23:07;;;;;;;14.13;9.70;;;;;;;2.21;100.00;93972.03;5064650;28;20481;-83
2023/01/27 02:25:48;;;;;;;14.13;8.90;;;;;;;2.23;100.00;93977.91;5064335;28;20467;-83
2023/01/27 02:28:15;;;;;;;13.83;8.37;;;;;;;2.32;100.00;93972.16;5064573;28;20449;-84
2023/01/27 02:30:42;;;;;;;11.83;8.67;;;;;;;2.34;100.00;93972.88;5064659;28;20499;-84
2023/01/27 02:33:11;;;;;;;17.57;10.10;;;;;;;2.35;100.00;93965.94;5064778;28;20453;-84
2023/01/27 02:35:43;;;;;;;10.63;8.20;;;;;;;2.41;100.00;93960.34;5033022;28;20460;-83
2023/01/27 02:38:13;;;;;;;15.83;10.87;;;;;;;2.42;100.00;93962.81;5068280;28;20446;-83
2023/01/27 02:40:41;;;;;;;18.90;9.80;;;;;;;2.39;100.00;93957.03;5068360;28;20444;-84
2023/01/27 02:43:09;;;;;;;10.03;8.13;;;;;;;2.44;100.00;93965.28;5049376;28;20460;-84
2023/01/27 02:45:36;;;;;;;15.70;9.30;;;;;;;2.52;100.00;93972.53;5068222;28;20494;-84
2023/01/27 02:48:03;;;;;;;16.63;9.47;;;;;;;2.47;100.00;93978.84;5068614;28;20445;-84
2023/01/27 02:50:29;;;;;;;11.77;8.97;;;;;;;2.56;100.00;93992.09;5068403;28;20479;-84
2023/01/27 02:52:56;;;;;;;12.10;9.23;;;;;;;2.60;100.00;93988.38;5032809;28;20457;-83
2023/01/27 02:55:23;;;;;;;14.70;9.70;;;;;;;2.64;100.00;93976.91;5067871;28;20471;-84
2023/01/27 02:57:50;;;;;;;13.90;9.93;;;;;;;2.67;100.00;93976.69;5068200;28;20952;-83
2023/01/27 03:00:18;;;;;;;15.60;10.03;;;;;;;2.71;100.00;93973.75;5068037;28;20452;-84
2023/01/27 03:02:45;;;;;;;16.97;11.20;;;;;;;2.77;100.00;93968.16;5067952;28;20503;-83
2023/01/27 03:05:12;;;;;;;16.40;11.53;;;;;;;2.82;100.00;93969.59;5068307;28;20445;-84
2023/01/27 03:07:39;;;;;;;14.93;10.40;;;;;;;2.86;100.00;93964.09;5067993;28;20524;-83
2023/01/27 03:10:07;;;;;;;16.43;11.80;;;;;;;2.86;100.00;93961.50;5067789;28;20441;-85
2023/01/27 03:12:34;;;;;;;15.93;10.40;;;;;;;2.77;100.00;93959.56;5016729;28;20441;-84
2023/01/27 03:20:34;;;;;;;22.47;12.83;;;;;;;2.41;100.00;93945.63;5067765;28;20487;-83
2023/01/27 03:23:00;;;;;;;19.23;13.00;;;;;;;2.43;100.00;93942.94;5067313;28;21060;-84
2023/01/27 03:25:27;;;;;;;16.77;12.60;;;;;;;2.40;100.00;93945.72;5065365;28;20473;-83
2023/01/27 03:27:54;;;;;;;18.47;13.00;;;;;;;2.36;100.00;93937.34;5022827;28;20846;-84
2023/01/27 03:30:21;;;;;;;17.57;12.90;;;;;;;2.32;100.00;93930.72;5056248;28;20455;-84
2023/01/27 03:32:49;;;;;;;25.83;15.20;;;;;;;2.35;100.00;93929.69;5054945;28;20449;-84
2023/01/27 03:35:16;;;;;;;25.42;17.30;;;;;;;2.38;100.00;93912.19;5055139;28;20203;-85
2023/01/27 03:46:17;;;;;;;20.87;13.50;;;;;;;2.36;100.00;93895.09;5054271;28;20498;-84
2023/01/27 03:48:49;;;;;;;21.13;15.60;;;;;;;2.40;100.00;93905.13;5055163;28;20446;-84
2023/01/27 03:51:16;;;;;;;21.37;14.33;;;;;;;2.43;100.00;93899.75;5020979;28;20488;-84
2023/01/27 03:53:43;;;;;;;22.43;15.00;;;;;;;2.48;100.00;93900.25;5055074;28;20448;-84
2023/01/27 03:56:10;;;;;;;16.63;14.10;;;;;;;2.48;100.00;93908.03;5054430;28;20881;-84
2023/01/27 03:58:38;;;;;;;19.37;13.70;;;;;;;2.58;100.00;93899.59;5054307;28;20987;-84
2023/01/27 04:01:06;;;;;;;18.27;13.50;;;;;;;2.57;100.00;93901.38;5054211;28;20448;-85
2023/01/27 04:09:08;;;;;;;18.73;14.00;;;;;;;2.62;100.00;93950.28;5054414;28;20417;-84
2023/01/27 04:14:20;;;;;;;24.93;15.47;;;;;;;2.67;100.00;93979.28;5054112;28;20424;-84
2023/01/27 04:16:47;;;;;;;21.80;14.90;;;;;;;2.76;100.00;93971.69;5054342;28;20522;-85
2023/01/27 04:19:14;;;;;;;23.33;15.53;;;;;;;2.79;100.00;93965.47;5054112;28;20449;-84
2023/01/27 04:21:42;;;;;;;25.07;18.10;;;;;;;2.73;100.00;93961.53;5053706;28;20485;-84
2023/01/27 04:24:15;;;;;;;20.83;14.63;;;;;;;2.69;100.00;93959.28;5054238;28;20457;-84
2023/01/27 04:26:43;;;;;;;22.07;15.30;;;;;;;2.67;100.00;93976.69;5004891;28;20916;-84
2023/01/27 04:29:11;;;;;;;28.37;16.40;;;;;;;2.65;100.00;93994.09;5018932;28;20449;-84
2023/01/27 04:31:38;;;;;;;31.50;17.30;;;;;;;2.71;100.00;94001.44;5053855;28;20446;-83
2023/01/27 04:34:05;;;;;;;21.20;15.43;;;;;;;2.74;100.00;93998.63;5053824;28;20449;-84
2023/01/27 04:36:32;;;;;;;22.03;15.93;;;;;;;2.77;100.00;93978.53;5018765;28;20440;-85
2023/01/27 04:39:00;;;;;;;30.00;17.17;;;;;;;2.68;100.00;93994.69;5053994;28;20437;-84
2023/01/27 04:41:27;;;;;;;23.20;14.83;;;;;;;2.70;100.00;94007.53;5053561;28;20495;-84
2023/01/27 04:43:54;;;;;;;22.70;14.73;;;;;;;2.71;100.00;94002.25;5052092;28;20548;-84
2023/01/27 04:46:21;;;;;;;21.93;14.27;;;;;;;2.63;100.00;93985.59;5053773;28;20437;-85
2023/01/27 04:48:48;;;;;;;26.47;15.80;;;;;;;2.56;100.00;93992.09;5054049;28;20437;-84
2023/01/27 04:51:14;;;;;;;22.97;14.70;;;;;;;2.58;100.00;93998.81;5053539;28;20445;-84
2023/01/27 04:53:42;;;;;;;23.07;14.87;;;;;;;2.61;100.00;93997.81;5053078;28;20480;-84
2023/01/27 04:56:21;;;;;;;25.70;16.17;;;;;;;2.55;100.00;93988.69;5053835;28;20449;-84
2023/01/27 04:58:48;;;;;;;22.80;15.23;;;;;;;2.42;100.00;93987.88;5018904;28;20461;-85
2023/01/27 05:01:14;;;;;;;23.40;15.47;;;;;;;2.49;100.00;94000.28;5053020;28;20437;-85
2023/01/27 05:03:41;;;;;;;22.87;15.50;;;;;;;2.48;100.00;93997.81;5001574;28;20481;-85
2023/01/27 05:06:09;;;;;;;25.43;15.50;;;;;;;2.48;100.00;94001.22;5052952;28;20453;-85
2023/01/27 05:08:36;;;;;;;22.20;14.20;;;;;;;2.42;100.00;93993.88;5052867;28;20449;-84
2023/01/27 05:11:02;;;;;;;22.93;14.30;;;;;;;2.37;100.00;94000.31;5053144;28;20843;-87
2023/01/27 05:13:31;;;;;;;27.60;17.23;;;;;;;2.31;100.00;93988.56;5052944;28;20519;-85
2023/01/27 05:16:11;;;;;;;24.70;17.70;;;;;;;2.33;100.00;93991.91;5017392;28;20444;-77
2023/01/27 05:18:38;;;;;;;39.80;21.30;;;;;;;2.46;100.00;93991.91;5055034;28;20437;-85
2023/01/27 05:21:06;;;;;;;38.90;23.40;;;;;;;2.44;100.00;93980.84;5019019;28;20448;-84
2023/01/27 05:23:36;;;;;;;42.53;21.37;;;;;;;2.40;100.00;93974.22;5053721;28;20990;-83
2023/01/27 05:26:06;;;;;;;25.40;18.17;;;;;;;2.39;100.00;93967.38;5053577;28;20477;-83
2023/01/27 05:28:35;;;;;;;30.50;17.93;;;;;;;2.40;100.00;93969.03;5053915;28;20917;-83
2023/01/27 05:31:06;;;;;;;29.60;16.33;;;;;;;2.46;100.00;93972.03;5053354;28;20449;-82
2023/01/27 05:33:33;;;;;;;29.97;17.70;;;;;;;2.57;100.00;93981.63;5053456;28;20449;-82
2023/01/27 05:36:01;;;;;;;27.53;16.23;;;;;;;2.62;100.00;93976.16;5053261;28;20453;-81
2023/01/27 05:38:28;;;;;;;23.37;15.47;;;;;;;2.59;100.00;93968.59;5053420;28;20945;-82
2023/01/27 05:40:59;;;;;;;24.53;14.23;;;;;;;2.60;100.00;93959.88;5018569;28;20433;-84
2023/01/27 05:43:26;;;;;;;34.33;14.90;;;;;;;2.50;100.00;93944.16;5054358;28;20493;-82
2023/01/27 05:46:01;;;;;;;21.70;13.40;;;;;;;2.45;100.00;93954.00;5053112;28;20510;-84
2023/01/27 05:48:28;;;;;;;26.57;13.00;;;;;;;2.39;100.00;93962.19;5053848;28;20513;-84
2023/01/27 05:50:55;;;;;;;17.13;11.60;;;;;;;2.44;100.00;93963.53;5053583;28;20457;-84
2023/01/27 05:53:23;;;;;;;22.57;13.57;;;;;;;2.45;100.00;93975.53;5045625;28;20449;-83
2023/01/27 05:55:50;;;;;;;21.17;13.00;;;;;;;2.51;100.00;93981.22;5043824;28;20500;-86
2023/01/27 05:58:17;;;;;;;18.30;13.27;;;;;;;2.60;100.00;93988.38;5037256;28;20457;-84
2023/01/27 06:00:44;;;;;;;17.98;12.48;;;;;;;2.64;100.00;93990.66;5053535;28;20441;-89
2023/01/27 06:03:13;;;;;;;21.93;14.83;;;;;;;2.69;100.00;93980.00;5052767;28;20230;-88
2023/01/27 06:05:48;;;;;;;21.03;13.57;;;;;;;2.70;100.00;93977.28;5052366;28;20498;-85
2023/01/27 06:08:15;;;;;;;26.17;13.97;;;;;;;2.76;100.00;93976.03;5043104;28;20449;-84
2023/01/27 06:10:42;;;;;;;59.87;29.10;;;;;;;2.80;100.00;93969.69;5005084;28;20446;-84
2023/01/27 06:13:09;;;;;;;76.93;37.63;;;;;;;2.83;100.00;93972.06;5040502;28;20457;-85
2023/01/27 06:15:36;;;;;;;40.00;20.20;;;;;;;2.83;100.00;93976.44;5049638;28;20892;-86
2023/01/27 06:18:02;;;;;;;23.30;14.03;;;;;;;2.86;100.00;93978.81;5020387;28;20453;-84
2023/01/27 06:20:30;;;;;;;18.47;12.30;;;;;;;2.93;100.00;93988.66;5046981;28;20784;-84
2023/01/27 06:22:57;;;;;;;20.83;14.50;;;;;;;2.91;100.00;93974.16;5047375;28;20486;-84
2023/01/27 06:25:24;;;;;;;28.40;15.53;;;;;;;2.90;100.00;93980.28;5042893;28;20469;-85
2023/01/27 06:27:54;;;;;;;23.90;15.20;;;;;;;2.95;100.00;93978.19;5054128;28;20498;-85
2023/01/27 06:30:21;;;;;;;36.63;17.90;;;;;;;3.01;100.00;93972.56;5054354;28;20449;-84
2023/01/27 06:32:48;;;;;;;35.10;20.90;;;;;;;3.02;100.00;93974.22;5052634;28;20437;-83
2023/01/27 06:35:15;;;;;;;26.70;17.27;;;;;;;3.00;100.00;93976.09;5046591;28;20449;-82
2023/01/27 06:37:43;;;;;;;23.97;15.40;;;;;;;2.93;100.00;93982.66;5045459;28;20924;-81
2023/01/27 06:40:11;;;;;;;18.63;13.57;;;;;;;2.80;100.00;93972.28;5043789;28;20422;-85
2023/01/27 06:42:38;;;;;;;22.63;14.60;;;;;;;2.87;100.00;93988.22;5048719;28;20489;-83
2023/01/27 06:45:06;;;;;;;21.77;13.73;;;;;;;2.84;100.00;94002.22;5036210;28;20909;-85
2023/01/27 06:47:33;;;;;;;30.30;16.43;;;;;;;2.83;100.00;94004.94;5048608;28;20994;-85
2023/01/27 06:49:59;;;;;;;25.10;17.47;;;;;;;2.73;100.00;93989.19;5044941;28;20460;-85
2023/01/27 06:52:26;;;;;;;28.33;17.80;;;;;;;2.60;100.00;93990.97;5044154;28;20865;-84
2023/01/27 06:54:55;;;;;;;21.60;12.80;;;;;;;2.45;100.00;94004.03;5046087;28;20452;-85
2023/01/27 06:57:21;;;;;;;25.30;12.77;;;;;;;2.44;100.00;94007.53;5038908;28;20199;-84
2023/01/27 06:59:48;;;;;;;26.97;15.77;;;;;;;2.41;100.00;94014.69;5056073;28;20453;-85
2023/01/27 07:02:15;;;;;;;33.38;18.90;;;;;;;2.38;100.00;94018.31;5047567;28;20508;-85
2023/01/27 07:04:42;;;;;;;31.03;19.23;;;;;;;2.37;100.00;94014.06;5052383;28;20210;-85
2023/01/27 07:07:09;;;;;;;41.90;28.53;;;;;;;2.37;100.00;94019.25;5052171;28;20461;-85
2023/01/27 07:09:35;;;;;;;33.73;20.67;;;;;;;2.41;100.00;94014.69;5044947;28;20449;-84
2023/01/27 07:12:04;;;;;;;44.10;25.17;;;;;;;2.38;100.00;94012.31;5036025;28;20500;-84
2023/01/27 07:14:31;;;;;;;29.52;17.90;;;;;;;2.37;100.00;94013.25;5003994;28;20450;-85
2023/01/27 07:16:57;;;;;;;15.23;11.23;;;;;;;2.36;100.00;94002.06;5044691;28;20256;-85
2023/01/27 07:19:24;;;;;;;19.52;12.02;;;;;;;2.26;100.00;94000.19;5037153;28;20446;-85
2023/01/27 07:21:51;;;;;;;36.50;22.07;;;;;;;2.24;100.00;93997.69;5030411;28;20610;-84
2023/01/27 07:24:18;;;;;;;29.73;19.87;;;;;;;2.26;100.00;94001.00;5037696;28;21060;-85
2023/01/27 07:26:46;;;;;;;24.38;18.08;;;;;;;2.24;100.00;94010.63;4999878;28;20968;-85
2023/01/27 07:29:15;;;;;;;23.03;16.03;;;;;;;2.20;100.00;94006.59;4988124;28;20229;-85
2023/01/27 07:31:43;;;;;;;23.10;16.33;;;;;;;2.16;100.00;94007.72;5040706;28;20436;-85
2023/01/27 07:34:10;;;;;;;26.93;16.20;;;;;;;2.11;100.00;94012.38;5036177;28;20450;-85
2023/01/27 07:36:38;;;;;;;23.23;15.37;;;;;;;2.14;100.00;94010.44;5036900;28;20449;-84
2023/01/27 07:39:05;;;;;;;28.57;15.70;;;;;;;2.11;100.00;94014.97;5000758;28;20426;-85
2023/01/27 07:41:32;;;;;;;17.33;13.30;;;;;;;2.06;100.00;94009.28;5034584;28;21032;-86
2023/01/27 07:43:59;;;;;;;17.37;13.20;;;;;;;2.17;100.00;94006.81;5035518;28;20557;-84
2023/01/27 07:46:27;;;;;;;32.83;16.30;;;;;;;2.17;100.00;94010.22;5035639;28;20496;-85
2023/01/27 07:48:53;;;;;;;23.67;14.50;;;;;;;2.17;100.00;94014.56;5035354;28;20925;-85
2023/01/27 07:51:20;;;;;;;28.10;20.63;;;;;;;2.23;100.00;94029.69;5035105;28;20921;-88
2023/01/27 07:53:47;;;;;;;35.63;23.80;;;;;;;2.39;100.00;94019.97;5036111;28;20183;-87
2023/01/27 07:56:14;;;;;;;24.48;17.92;;;;;;;2.43;100.00;94018.84;5036551;28;20443;-87
2023/01/27 07:58:42;;;;;;;24.93;20.00;;;;;;;2.47;100.00;94012.50;5035857;28;20203;-82
2023/01/27 08:01:10;;;;;;;59.40;36.10;;;;;;;2.59;100.00;94016.03;5035551;28;20447;-86
2023/01/27 08:03:39;;;;;;;30.50;21.97;;;;;;;2.66;100.00;94017.28;5035337;28;20532;-86
2023/01/27 08:06:07;;;;;;;34.00;26.67;;;;;;;2.68;100.00;94017.19;5000207;28;20969;-89
2023/01/27 08:08:34;;;;;;;24.93;16.40;;;;;;;2.71;100.00;94012.63;5037669;28;20457;-82
2023/01/27 08:11:01;;;;;;;16.90;13.00;;;;;;;2.63;100.00;94014.09;5054487;28;20799;-82
2023/01/27 08:13:28;;;;;;;18.50;14.70;;;;;;;2.63;100.00;94004.56;5054704;28;20930;-82
2023/01/27 08:15:59;;;;;;;18.40;13.73;;;;;;;2.59;100.00;93994.47;5036303;28;20520;-84
2023/01/27 08:18:27;;;;;;;20.27;15.13;;;;;;;2.51;100.00;94007.13;5034695;28;20454;-82
2023/01/27 08:20:55;;;;;;;23.53;15.13;;;;;;;2.54;100.00;94005.16;5045258;28;21305;-88
2023/01/27 08:23:22;;;;;;;31.10;21.33;;;;;;;2.51;100.00;94009.72;5050942;28;20575;-83
2023/01/27 08:25:50;;;;;;;18.13;15.47;;;;;;;2.53;100.00;94008.69;5054804;28;20480;-82
2023/01/27 08:28:17;;;;;;;26.53;20.43;;;;;;;2.56;100.00;94005.06;5054653;28;20450;-82
2023/01/27 08:30:44;;;;;;;28.90;15.07;;;;;;;2.65;100.00;94007.88;5019562;28;20487;-82
2023/01/27 08:33:11;;;;;;;25.67;16.77;;;;;;;2.56;100.00;94011.06;5013821;28;20441;-82
2023/01/27 08:35:41;;;;;;;29.30;20.40;;;;;;;2.61;100.00;94018.53;5046555;28;20522;-82
2023/01/27 08:38:09;;;;;;;33.30;19.43;;;;;;;2.57;100.00;94019.66;5014061;28;20473;-82
2023/01/27 08:40:36;;;;;;;26.00;18.60;;;;;;;2.62;100.00;94023.63;4992061;28;20480;-83
2023/01/27 08:43:03;;;;;;;21.13;15.33;;;;;;;2.62;100.00;94038.31;5047389;28;20493;-82
2023/01/27 08:45:30;;;;;;;34.13;19.37;;;;;;;2.58;100.00;94029.06;5051768;28;20523;-85
2023/01/27 08:47:56;;;;;;;24.83;14.00;;;;;;;2.60;100.00;94019.44;5046670;28;20514;-85
2023/01/27 08:50:23;;;;;;;22.57;13.93;;;;;;;2.56;100.00;94028.34;5046703;28;20443;-84
2023/01/27 08:52:50;;;;;;;27.90;16.20;;;;;;;2.44;100.00;94024.84;5052807;28;21240;-86
2023/01/27 08:55:18;;;;;;;16.63;11.83;;;;;;;2.36;100.00;94020.19;5053257;28;20457;-86
2023/01/27 08:57:45;;;;;;;18.77;13.00;;;;;;;2.25;100.00;93998.53;5033880;28;20446;-84
2023/01/27 09:00:13;;;;;;;18.43;12.20;;;;;;;2.30;100.00;94015.41;5033436;28;20458;-86
2023/01/27 09:02:40;;;;;;;15.20;13.00;;;;;;;2.31;100.00;94019.63;5034430;28;20450;-84
2023/01/27 09:05:07;;;;;;;11.33;10.10;;;;;;;2.31;100.00;94018.81;4983485;28;20206;-81
2023/01/27 09:07:34;;;;;;;17.03;13.63;;;;;;;2.31;100.00;94017.06;4985802;28;20512;-86
2023/01/27 09:10:00;;;;;;;19.83;12.90;;;;;;;2.34;100.00;94016.88;5034083;28;20795;-81
2023/01/27 09:12:29;;;;;;;15.50;12.67;;;;;;;2.45;100.00;94019.56;5033896;28;20438;-81
2023/01/27 09:14:57;;;;;;;22.10;14.43;;;;;;;2.53;100.00;94023.38;4983241;28;20446;-84
2023/01/27 09:17:24;;;;;;;18.40;14.50;;;;;;;2.57;100.00;94027.41;4999907;28;20995;-83
2023/01/27 09:19:50;;;;;;;20.03;14.50;;;;;;;2.64;100.00;94019.16;5033361;28;20454;-82
2023/01/27 09:22:17;;;;;;;21.67;11.93;;;;;;;2.59;100.00;94017.78;5031936;28;20868;-82
2023/01/27 09:24:44;;;;;;;20.80;13.40;;;;;;;2.63;100.00;94007.13;5050192;28;20504;-82
2023/01/27 09:27:11;;;;;;;22.10;12.37;;;;;;;2.65;100.00;94007.03;5052487;28;20464;-82
2023/01/27 09:29:39;;;;;;;20.40;14.40;;;;;;;2.61;100.00;94006.41;5052091;28;20441;-81
2023/01/27 09:32:07;;;;;;;19.47;13.07;;;;;;;2.63;100.00;94001.13;5051889;28;20524;-82
2023/01/27 09:34:35;;;;;;;15.83;11.93;;;;;;;2.67;100.00;94002.56;5052207;28;20537;-82
2023/01/27 09:37:05;;;;;;;19.27;14.03;;;;;;;2.68;100.00;93993.88;5051771;28;20441;-82
2023/01/27 09:39:36;;;;;;;19.70;14.93;;;;;;;2.65;100.00;93989.72;5051959;28;20446;-82
2023/01/27 09:42:35;;;;;;;21.63;16.17;;;;;;;2.60;100.00;93978.00;5052460;28;20460;-81
2023/01/27 09:45:33;;;;;;;24.67;15.83;;;;;;;2.70;100.00;93982.47;4970119;28;20488;-82
2023/01/27 09:48:20;;;;;;;28.10;16.37;;;;;;;2.76;100.00;93983.81;4972331;28;20457;-82
2023/01/27 09:50:52;;;;;;;21.47;14.37;;;;;;;2.85;100.00;93980.56;4971585;28;20449;-81
2023/01/27 09:53:56;;;;;;;14.00;10.97;;;;;;;2.82;100.00;93972.19;4971135;28;20453;-81
2023/01/27 09:56:39;;;;;;;20.77;12.93;;;;;;;2.80;100.00;93961.94;4971349;28;20488;-82
2023/01/27 09:59:20;;;;;;;18.40;13.50;;;;;;;2.83;100.00;93964.31;4971382;28;20440;-82
2023/01/27 10:01:58;;;;;;;18.97;13.60;;;;;;;2.92;100.00;93958.50;4971468;28;20492;-84
2023/01/27 10:04:54;;;;;;;17.20;13.03;;;;;;;2.90;100.00;93957.78;4939684;28;20607;-82
2023/01/27 10:08:03;;;;;;;26.53;14.70;;;;;;;2.80;100.00;93964.53;4932835;29;20446;-82
2023/01/27 10:10:44;;;;;;;30.23;15.60;;;;;;;2.66;100.00;93959.47;4784661;30;20485;-82
2023/01/27 10:13:22;;;;;;;61.03;27.57;;;;;;;2.61;100.00;93964.16;4784999;30;20446;-81
2023/01/27 10:16:03;;;;;;;61.27;28.50;;;;;;;2.54;100.00;93960.31;4785793;30;20920;-82
2023/01/27 10:18:45;;;;;;;61.60;30.13;;;;;;;2.47;100.00;93958.16;4785720;30;20471;-82
2023/01/27 10:21:21;;;;;;;49.03;24.40;;;;;;;2.41;100.00;93955.97;4788483;29;20208;-81
2023/01/27 10:23:58;;;;;;;56.07;30.53;;;;;;;2.33;100.00;93953.09;4821485;29;21079;-82
2023/01/27 10:26:32;;;;;;;43.07;23.07;;;;;;;2.28;100.00;93957.72;4838131;29;20855;-82
2023/01/27 10:29:08;;;;;;;30.97;18.07;;;;;;;2.35;100.00;93948.63;4810402;29;20455;-82
2023/01/27 10:31:37;;;;;;;25.63;16.37;;;;;;;2.30;100.00;93942.91;4796122;29;20451;-82
2023/01/27 10:34:18;;;;;;;22.77;14.35;;;;;;;2.15;100.00;93943.97;4839826;29;20455;-81
2023/01/27 10:36:52;;;;;;;14.45;12.43;;;;;;;2.11;100.00;93952.88;4839277;29;20267;-81
2023/01/27 10:39:32;;;;;;;19.23;13.40;;;;;;;2.17;100.00;93955.06;4838844;29;20209;-82
2023/01/27 10:42:09;;;;;;;23.30;16.70;;;;;;;2.27;100.00;93952.66;4839083;29;20459;-81
2023/01/27 10:44:55;;;;;;;23.25;16.90;;;;;;;2.36;100.00;93947.72;4858483;29;20492;-81
2023/01/27 10:47:36;;;;;;;20.53;12.83;;;;;;;2.27;100.00;93945.72;4987019;28;20613;-81
2023/01/27 10:50:10;;;;;;;20.87;16.60;;;;;;;2.30;100.00;93937.75;5031680;28;20442;-82
2023/01/27 10:52:42;;;;;;;38.10;18.47;;;;;;;2.38;100.00;93948.44;5032106;28;20442;-82
2023/01/27 10:55:18;;;;;;;23.67;14.10;;;;;;;2.47;100.00;93952.13;5035270;28;20449;-82
2023/01/27 10:57:53;;;;;;;15.33;10.20;;;;;;;2.41;100.00;93944.81;5035719;28;20445;-81
2023/01/27 11:00:31;;;;;;;11.93;9.87;;;;;;;2.34;100.00;93948.75;5037005;28;20445;-82
2023/01/27 11:03:05;;;;;;;13.30;9.67;;;;;;;2.35;100.00;93943.47;5036399;28;20457;-82
2023/01/27 11:05:37;;;;;;;16.98;10.82;;;;;;;2.38;100.00;93939.84;5036342;28;20486;-82
2023/01/27 11:08:12;;;;;;;25.70;15.07;;;;;;;2.48;100.00;93938.25;5038327;28;20235;-82
2023/01/27 11:11:43;;;;;;;28.60;16.37;;;;;;;2.37;100.00;93933.81;5003866;28;20941;-82
2023/01/27 11:13:32;;;;;;;19.20;13.33;;;;;;;2.37;100.00;93927.81;5037213;28;20520;-82
2023/01/27 11:16:00;;;;;;;18.10;12.90;;;;;;;2.31;100.00;93926.47;5037478;28;20454;-83
2023/01/27 11:18:29;;;;;;;19.00;12.27;;;;;;;2.22;100.00;93927.09;5038412;28;20234;-82
2023/01/27 11:21:01;;;;;;;18.85;12.45;;;;;;;2.24;100.00;93925.22;5035502;28;20254;-82
2023/01/27 11:23:30;;;;;;;17.30;12.95;;;;;;;2.23;100.00;93931.34;5034653;28;20562;-82
2023/01/27 11:26:04;;;;;;;19.92;12.73;;;;;;;2.30;100.00;93921.38;5049273;28;20241;-81
2023/01/27 11:28:40;;;;;;;17.23;13.75;;;;;;;2.35;100.00;93919.34;5055323;28;20206;-82
2023/01/27 11:31:21;;;;;;;14.95;11.40;;;;;;;2.39;100.00;93924.19;5021547;28;20320;-85
2023/01/27 11:33:57;;;;;;;15.20;11.33;;;;;;;2.38;100.00;93922.53;5054798;28;20211;-81
2023/01/27 11:36:26;;;;;;;17.33;13.70;;;;;;;2.24;100.00;93922.63;5054693;28;20976;-82
2023/01/27 11:38:54;;;;;;;22.57;13.87;;;;;;;2.23;100.00;93914.97;5041021;28;20438;-82
2023/01/27 11:41:22;;;;;;;16.85;10.95;;;;;;;2.19;100.00;93919.53;5021681;28;20453;-82
2023/01/27 11:43:49;;;;;;;22.35;11.52;;;;;;;2.14;100.00;93919.03;5037259;28;20237;-82
2023/01/27 11:46:22;;;;;;;24.97;12.97;;;;;;;2.13;100.00;93910.44;5054133;28;20214;-82
2023/01/27 11:48:53;;;;;;;16.13;13.10;;;;;;;2.06;100.00;93911.78;5054389;28;20449;-82
2023/01/27 11:51:22;;;;;;;19.08;13.88;;;;;;;2.11;100.00;93911.47;5021334;28;20221;-84
2023/01/27 11:53:57;;;;;;;22.08;14.70;;;;;;;2.12;100.00;93910.53;5056221;28;20610;-86
2023/01/27 11:56:28;;;;;;;26.45;16.85;;;;;;;2.12;100.00;93908.78;5055970;28;20197;-84
2023/01/27 11:59:01;;;;;;;20.98;14.88;;;;;;;2.17;100.00;93904.13;5056591;28;20205;-85
2023/01/27 12:01:38;;;;;;;26.95;14.07;;;;;;;2.29;100.00;93902.44;5057147;28;20216;-83
2023/01/27 12:04:13;;;;;;;18.42;13.55;;;;;;;2.36;100.00;93900.28;5055727;28;20238;-83